Time;durP1;ratioP1;P1;durP2;ratioP2;P2;SDS_P1;SDS_P2;PMS_P1;PMS_P2;Temp;Humidity;BMP_temperature;BMP_pressure;BME280_temperature;BME280_humidity;BME280_pressure;Samples;Min_cycle;Max_cycle;Signal;HPM_P1;HPM_P2
2021/05/16 00:00:26;;;;;;;1.98;1.30;;;;;;;10.89;89.29;99516.81;3563416;40;20109;-51
2021/05/16 00:02:54;;;;;;;1.35;1.20;;;;;;;10.66;92.77;99519.22;3563145;40;20057;-54
2021/05/16 00:05:24;;;;;;;2.22;1.60;;;;;;;10.72;91.25;99514.13;3563842;40;20073;-51
2021/05/16 00:07:52;;;;;;;3.45;1.33;;;;;;;10.50;92.40;99509.75;3559442;40;20104;-52
2021/05/16 00:10:20;;;;;;;1.52;1.35;;;;;;;10.63;92.52;99512.41;3564480;40;20075;-50
2021/05/16 00:12:49;;;;;;;2.78;1.30;;;;;;;10.27;93.58;99501.91;3555457;40;20054;-52
2021/05/16 00:15:18;;;;;;;1.92;1.48;;;;;;;10.38;94.45;99507.94;3567729;40;20835;-50
2021/05/16 00:17:45;;;;;;;1.63;1.20;;;;;;;10.92;91.19;99510.00;3566982;40;20097;-54
2021/05/16 00:20:15;;;;;;;1.38;1.27;;;;;;;10.73;92.64;99500.50;3568321;40;20081;-51
2021/05/16 00:22:42;;;;;;;1.45;1.27;;;;;;;10.74;92.41;99507.34;3569554;40;20112;-51
2021/05/16 00:25:13;;;;;;;1.23;1.13;;;;;;;11.07;90.27;99503.22;3569002;40;20098;-53
2021/05/16 00:27:40;;;;;;;2.65;1.75;;;;;;;10.61;93.15;99505.53;3567314;40;20129;-54
2021/05/16 00:30:10;;;;;;;1.30;1.20;;;;;;;11.26;90.06;99507.56;3567763;40;20068;-53
2021/05/16 00:32:37;;;;;;;1.85;1.55;;;;;;;10.95;90.82;99504.00;3560134;40;20060;-52
2021/05/16 00:35:06;;;;;;;1.70;1.58;;;;;;;10.81;92.38;99514.19;3569119;40;20389;-52
2021/05/16 00:37:33;;;;;;;2.50;1.30;;;;;;;10.66;93.47;99502.16;3567467;40;20041;-54
2021/05/16 00:40:00;;;;;;;1.50;1.40;;;;;;;11.32;90.63;99510.16;3567838;40;20081;-54
2021/05/16 00:42:27;;;;;;;2.08;1.60;;;;;;;11.21;90.83;99514.38;3569901;40;20160;-54
2021/05/16 00:45:11;;;;;;;3.78;1.70;;;;;;;11.26;90.26;99514.41;3569907;40;20081;-50
2021/05/16 00:47:45;;;;;;;1.33;1.15;;;;;;;10.86;92.37;99509.09;3572111;40;20084;-50
2021/05/16 00:50:12;;;;;;;1.55;1.45;;;;;;;10.64;93.66;99508.97;3573925;40;20314;-53
2021/05/16 00:52:41;;;;;;;1.73;1.63;;;;;;;10.82;93.22;99510.81;3573478;40;20041;-54
2021/05/16 00:55:11;;;;;;;3.03;2.17;;;;;;;10.81;93.11;99506.50;3569722;40;20319;-53
2021/05/16 00:57:39;;;;;;;2.17;1.58;;;;;;;11.10;91.94;99506.66;3567546;40;20334;-54
2021/05/16 01:00:13;;;;;;;1.73;1.50;;;;;;;10.77;92.60;99509.03;3567203;40;20064;-52
2021/05/16 01:02:40;;;;;;;1.98;1.48;;;;;;;10.92;92.11;99514.25;3568972;40;20271;-55
2021/05/16 01:05:10;;;;;;;3.45;1.70;;;;;;;10.73;93.70;99515.88;3568877;40;20093;-51
2021/05/16 01:07:38;;;;;;;2.53;1.85;;;;;;;10.76;93.92;99522.69;3567363;40;20089;-51
2021/05/16 01:10:08;;;;;;;3.30;1.70;;;;;;;10.66;94.24;99514.97;3567597;40;20363;-51
2021/05/16 01:12:46;;;;;;;2.35;1.55;;;;;;;10.41;94.69;99513.94;3568977;40;20059;-55
2021/05/16 01:15:18;;;;;;;3.28;1.50;;;;;;;10.85;93.47;99515.91;3568786;40;20092;-53
2021/05/16 01:17:46;;;;;;;2.13;1.60;;;;;;;11.01;93.00;99505.78;3567563;40;20093;-55
2021/05/16 01:20:20;;;;;;;1.92;1.83;;;;;;;10.57;94.73;99506.38;3567589;40;20061;-55
2021/05/16 01:22:59;;;;;;;5.07;1.85;;;;;;;10.95;92.81;99501.44;3567531;40;20085;-53
2021/05/16 01:25:27;;;;;;;2.60;1.60;;;;;;;10.96;92.64;99506.59;3568863;40;20433;-55
2021/05/16 01:27:55;;;;;;;3.17;1.80;;;;;;;10.52;95.98;99506.34;3568974;40;20100;-55
2021/05/16 01:30:22;;;;;;;9.68;2.03;;;;;;;10.41;96.89;99505.41;3568295;40;20112;-54
2021/05/16 01:32:50;;;;;;;3.25;1.98;;;;;;;10.76;96.55;99504.78;3567440;40;20064;-54
2021/05/16 01:35:18;;;;;;;1.70;1.52;;;;;;;11.15;92.36;99520.34;3568182;40;20057;-54
2021/05/16 01:37:47;;;;;;;3.35;1.77;;;;;;;10.89;93.99;99519.34;3568661;40;20549;-51
2021/05/16 01:40:15;;;;;;;2.67;2.00;;;;;;;10.40;96.87;99514.81;3568080;40;20097;-54
2021/05/16 01:43:00;;;;;;;1.92;1.60;;;;;;;10.04;99.64;99510.22;3566985;40;20070;-46
2021/05/16 01:45:28;;;;;;;2.38;2.17;;;;;;;10.13;99.78;99517.97;3568782;40;20053;-51
2021/05/16 01:47:57;;;;;;;2.00;1.90;;;;;;;9.97;100.00;99520.34;3569220;40;20087;-54
2021/05/16 01:50:36;;;;;;;2.13;1.92;;;;;;;10.52;97.49;99520.84;3568784;40;20067;-55
2021/05/16 01:53:06;;;;;;;3.53;2.20;;;;;;;10.60;96.32;99526.88;3568859;40;20064;-56
2021/05/16 01:55:34;;;;;;;3.35;1.80;;;;;;;10.66;96.48;99525.19;3565539;40;20132;-53
2021/05/16 01:58:02;;;;;;;3.30;2.05;;;;;;;10.07;99.57;99520.44;3567033;40;20057;-52
2021/05/16 02:00:41;;;;;;;2.40;2.05;;;;;;;9.67;100.00;99516.66;3567879;40;20086;-52
2021/05/16 02:03:08;;;;;;;2.15;1.95;;;;;;;9.70;100.00;99517.53;3568604;40;20073;-50
2021/05/16 02:05:35;;;;;;;1.85;1.75;;;;;;;9.97;100.00;99517.78;3566912;40;20422;-53
2021/05/16 02:08:03;;;;;;;2.17;1.73;;;;;;;9.78;100.00;99512.50;3564539;40;20068;-50
2021/05/16 02:10:31;;;;;;;4.70;2.15;;;;;;;9.73;100.00;99516.72;3557463;40;20053;-49
2021/05/16 02:12:58;;;;;;;3.00;1.92;;;;;;;9.68;100.00;99524.34;3566675;40;20089;-50
2021/05/16 02:15:26;;;;;;;3.95;2.35;;;;;;;10.12;99.23;99521.38;3565381;40;20062;-52
2021/05/16 02:17:57;;;;;;;3.25;2.20;;;;;;;10.14;100.00;99529.91;3567376;40;20090;-48
2021/05/16 02:20:24;;;;;;;2.58;2.00;;;;;;;10.09;99.71;99530.72;3568840;40;20068;-49
2021/05/16 02:22:52;;;;;;;2.33;2.13;;;;;;;9.88;99.39;99526.25;3559695;40;20060;-50
2021/05/16 02:25:19;;;;;;;2.97;2.05;;;;;;;9.42;100.00;99518.09;3558888;40;20084;-50
2021/05/16 02:27:49;;;;;;;2.90;2.00;;;;;;;9.46;100.00;99519.84;3566846;40;20434;-53
2021/05/16 02:30:18;;;;;;;2.75;2.20;;;;;;;9.89;100.00;99526.28;3567916;40;20156;-55
2021/05/16 02:32:46;;;;;;;2.40;2.10;;;;;;;9.55;100.00;99529.31;3569021;40;20053;-51
2021/05/16 02:35:14;;;;;;;3.67;2.55;;;;;;;9.62;100.00;99526.00;3559179;40;20084;-49
2021/05/16 02:37:42;;;;;;;3.10;2.28;;;;;;;9.37;100.00;99522.28;3566641;40;20798;-47
2021/05/16 02:40:10;;;;;;;2.83;2.60;;;;;;;9.79;100.00;99524.44;3556370;40;20058;-50
2021/05/16 02:42:37;;;;;;;2.47;2.28;;;;;;;9.74;100.00;99522.69;3567056;40;20069;-51
2021/05/16 02:45:05;;;;;;;2.80;2.58;;;;;;;9.27;100.00;99528.13;3566997;40;20064;-51
2021/05/16 02:47:32;;;;;;;2.70;2.50;;;;;;;8.84;100.00;99523.34;3557577;40;20078;-47
2021/05/16 02:49:59;;;;;;;4.20;2.42;;;;;;;8.76;100.00;99516.41;3566425;40;20085;-48
2021/05/16 02:52:26;;;;;;;2.67;2.47;;;;;;;9.30;100.00;99529.03;3568189;40;20056;-54
2021/05/16 02:54:53;;;;;;;2.40;2.20;;;;;;;9.35;100.00;99529.94;3568445;40;20463;-50
2021/05/16 02:57:21;;;;;;;2.75;2.55;;;;;;;9.22;100.00;99530.63;3568133;40;20409;-49
2021/05/16 02:59:49;;;;;;;3.58;2.45;;;;;;;8.68;100.00;99524.78;3568973;40;20064;-52
2021/05/16 03:02:16;;;;;;;3.42;2.78;;;;;;;9.03;100.00;99532.09;3568333;40;20139;-47
2021/05/16 03:04:43;;;;;;;2.95;2.75;;;;;;;8.99;100.00;99529.47;3568416;40;20446;-52
2021/05/16 03:07:11;;;;;;;2.65;2.45;;;;;;;8.77;100.00;99534.28;3569497;40;20080;-49
2021/05/16 03:09:38;;;;;;;2.67;2.47;;;;;;;8.56;100.00;99528.88;3559588;40;20046;-50
2021/05/16 03:12:07;;;;;;;4.03;2.83;;;;;;;8.61;100.00;99534.91;3558730;40;20093;-50
2021/05/16 03:14:34;;;;;;;3.17;2.78;;;;;;;8.55;100.00;99528.03;3566084;40;20061;-51
2021/05/16 03:17:02;;;;;;;4.28;3.00;;;;;;;8.28;100.00;99518.22;3565297;40;20064;-52
2021/05/16 03:19:29;;;;;;;4.03;3.30;;;;;;;8.36;100.00;99521.75;3574989;40;20053;-48
2021/05/16 03:21:59;;;;;;;5.65;3.20;;;;;;;8.35;100.00;99519.16;3570103;40;20041;-48
2021/05/16 03:24:28;;;;;;;3.90;3.50;;;;;;;8.79;100.00;99519.88;3569514;40;20390;-52
2021/05/16 03:26:55;;;;;;;7.45;3.75;;;;;;;8.66;100.00;99515.41;3560813;40;20064;-51
2021/05/16 03:29:22;;;;;;;5.45;3.25;;;;;;;8.43;100.00;99526.97;3568883;40;20053;-51
2021/05/16 03:31:49;;;;;;;3.47;3.17;;;;;;;9.07;100.00;99533.84;3568412;40;20073;-50
2021/05/16 03:34:17;;;;;;;3.75;3.05;;;;;;;9.30;100.00;99531.59;3551697;40;20108;-49
2021/05/16 03:36:44;;;;;;;3.15;2.85;;;;;;;9.01;100.00;99531.19;3567556;40;20109;-56
2021/05/16 03:39:11;;;;;;;4.18;3.35;;;;;;;9.14;100.00;99537.34;3568607;40;20053;-52
2021/05/16 03:41:39;;;;;;;3.40;2.72;;;;;;;8.93;100.00;99538.78;3560441;40;20064;-57
2021/05/16 03:44:06;;;;;;;4.72;3.15;;;;;;;9.18;100.00;99539.09;3569807;40;20101;-50
2021/05/16 03:46:34;;;;;;;3.97;3.63;;;;;;;8.80;100.00;99538.59;3567857;40;20049;-49
2021/05/16 03:49:01;;;;;;;3.08;2.63;;;;;;;9.27;100.00;99541.75;3562692;40;20081;-51
2021/05/16 03:51:45;;;;;;;3.67;3.38;;;;;;;8.74;100.00;99531.72;3566226;40;20053;-48
2021/05/16 03:54:17;;;;;;;3.25;3.05;;;;;;;8.61;100.00;99540.00;3568626;40;20094;-50
2021/05/16 03:56:44;;;;;;;3.58;3.28;;;;;;;8.66;100.00;99529.03;3569556;40;20113;-53
2021/05/16 03:59:11;;;;;;;3.78;2.88;;;;;;;8.76;100.00;99526.63;3569613;40;20071;-52
2021/05/16 04:01:38;;;;;;;3.65;3.35;;;;;;;8.40;100.00;99528.63;3568033;40;20053;-49
2021/05/16 04:04:06;;;;;;;3.90;3.60;;;;;;;8.72;100.00;99523.16;3568538;40;20060;-52
2021/05/16 04:06:33;;;;;;;5.30;3.47;;;;;;;9.08;100.00;99527.91;3570037;40;20392;-50
2021/05/16 04:09:00;;;;;;;3.30;3.00;;;;;;;9.02;100.00;99519.31;3570051;40;20089;-47
2021/05/16 04:11:27;;;;;;;3.65;3.35;;;;;;;9.59;100.00;99514.03;3567477;40;20541;-46
2021/05/16 04:13:54;;;;;;;5.40;3.85;;;;;;;9.48;100.00;99517.31;3566411;40;20430;-47
2021/05/16 04:16:21;;;;;;;3.00;2.80;;;;;;;9.86;100.00;99518.56;3569241;40;20362;-51
2021/05/16 04:18:48;;;;;;;2.45;2.33;;;;;;;10.41;97.63;99519.06;3569535;40;20417;-50
2021/05/16 04:21:15;;;;;;;7.47;2.80;;;;;;;10.48;97.66;99521.66;3568704;40;20071;-54
2021/05/16 04:23:42;;;;;;;2.88;2.42;;;;;;;10.59;96.06;99527.72;3567721;40;20065;-55
2021/05/16 04:26:09;;;;;;;2.42;2.10;;;;;;;10.60;95.91;99527.72;3567783;40;20061;-50
2021/05/16 04:28:36;;;;;;;2.55;2.35;;;;;;;10.47;97.03;99525.06;3570053;40;20044;-54
2021/05/16 04:31:03;;;;;;;4.47;2.53;;;;;;;10.48;98.59;99529.34;3560684;40;20049;-51
2021/05/16 04:33:30;;;;;;;2.70;1.90;;;;;;;10.90;93.15;99531.31;3564459;40;20068;-51
2021/05/16 04:35:58;;;;;;;2.05;1.90;;;;;;;10.93;93.35;99532.19;3563832;40;20450;-52
2021/05/16 04:38:25;;;;;;;3.75;2.38;;;;;;;11.10;91.41;99534.84;3563637;40;20109;-49
2021/05/16 04:40:52;;;;;;;1.80;1.70;;;;;;;11.12;92.77;99537.41;3563893;40;20061;-51
2021/05/16 04:43:19;;;;;;;3.03;2.00;;;;;;;11.16;91.59;99540.00;3558195;40;20116;-50
2021/05/16 04:45:46;;;;;;;2.50;1.80;;;;;;;11.31;89.76;99546.88;3563973;40;20095;-51
2021/05/16 04:48:14;;;;;;;2.35;1.50;;;;;;;11.28;89.86;99535.75;3564401;40;20057;-50
2021/05/16 04:50:41;;;;;;;2.40;1.90;;;;;;;11.33;90.56;99546.91;3564356;40;20053;-52
2021/05/16 04:53:08;;;;;;;2.72;1.75;;;;;;;11.33;89.66;99544.34;3564195;40;20451;-50
2021/05/16 04:55:35;;;;;;;4.03;2.35;;;;;;;11.26;89.40;99542.59;3564344;40;20321;-56
2021/05/16 04:58:02;;;;;;;2.45;1.73;;;;;;;11.35;89.75;99548.63;3564273;40;20072;-55
2021/05/16 05:00:29;;;;;;;2.67;1.83;;;;;;;11.32;89.59;99547.75;3564530;40;20082;-51
2021/05/16 05:02:57;;;;;;;1.90;1.67;;;;;;;11.52;89.08;99550.41;3567947;40;20097;-48
2021/05/16 05:05:25;;;;;;;2.30;1.67;;;;;;;11.69;87.68;99554.72;3568685;40;20058;-55
2021/05/16 05:07:52;;;;;;;1.70;1.60;;;;;;;11.89;87.44;99552.25;3569493;40;20101;-49
2021/05/16 05:10:19;;;;;;;3.35;1.60;;;;;;;11.79;85.90;99545.34;3568830;40;20049;-50
2021/05/16 05:12:46;;;;;;;2.88;1.60;;;;;;;12.05;85.15;99550.53;3567901;40;20104;-52
2021/05/16 05:15:13;;;;;;;1.50;1.40;;;;;;;11.82;86.66;99549.63;3568210;40;20090;-55
2021/05/16 05:17:41;;;;;;;2.05;1.52;;;;;;;12.03;85.55;99544.56;3569647;40;20100;-54
2021/05/16 05:20:09;;;;;;;1.80;1.50;;;;;;;11.89;84.58;99549.69;3565322;40;20064;-51
2021/05/16 05:22:37;;;;;;;2.00;1.80;;;;;;;11.85;84.21;99547.09;3569366;40;20104;-48
2021/05/16 05:25:05;;;;;;;1.75;1.50;;;;;;;12.03;84.42;99544.56;3569289;40;20065;-51
2021/05/16 05:27:32;;;;;;;1.60;1.50;;;;;;;11.82;84.80;99542.81;3567592;40;20109;-51
2021/05/16 05:29:59;;;;;;;2.28;1.70;;;;;;;11.72;85.21;99535.91;3567498;40;20133;-51
2021/05/16 05:32:26;;;;;;;1.98;1.83;;;;;;;11.63;86.45;99547.00;3568841;40;20071;-53
2021/05/16 05:34:53;;;;;;;2.60;1.70;;;;;;;11.86;85.82;99541.97;3560595;40;20055;-49
2021/05/16 05:37:20;;;;;;;1.58;1.48;;;;;;;11.95;85.37;99543.69;3568033;40;20636;-49
2021/05/16 05:39:47;;;;;;;2.17;1.80;;;;;;;12.02;84.02;99545.44;3571102;40;20041;-50
2021/05/16 05:42:14;;;;;;;1.55;1.45;;;;;;;11.96;84.50;99551.38;3568840;40;20352;-52
2021/05/16 05:44:42;;;;;;;2.70;1.83;;;;;;;12.11;84.46;99547.13;3574342;40;20506;-52
2021/05/16 05:47:10;;;;;;;2.15;1.70;;;;;;;12.10;83.75;99550.53;3575199;40;20111;-52
2021/05/16 05:49:40;;;;;;;2.17;1.60;;;;;;;12.20;84.11;99554.81;3573882;40;20433;-52
2021/05/16 05:52:13;;;;;;;;;;;;;;;12.45;82.88;99555.72;3570300;40;20045;-52
2021/05/16 05:54:40;;;;;;;1.95;1.60;;;;;;;12.35;84.12;99554.84;3568479;40;20630;-50
2021/05/16 05:57:07;;;;;;;2.85;1.80;;;;;;;12.45;82.13;99556.56;3568143;40;20468;-50
2021/05/16 05:59:34;;;;;;;1.80;1.70;;;;;;;12.51;82.02;99555.69;3566820;40;20104;-53
2021/05/16 06:02:03;;;;;;;2.55;1.60;;;;;;;12.47;82.75;99557.41;3566969;40;20070;-54
2021/05/16 06:04:30;;;;;;;1.80;1.70;;;;;;;12.50;82.39;99551.44;3569305;40;20059;-54
2021/05/16 06:06:57;;;;;;;1.95;1.42;;;;;;;12.39;82.51;99554.00;3569148;40;20092;-50
2021/05/16 06:09:25;;;;;;;2.30;1.45;;;;;;;12.51;83.72;99550.56;3568319;40;20122;-51
2021/05/16 06:11:54;;;;;;;2.15;1.85;;;;;;;12.71;81.65;99555.66;3567883;40;20426;-52
2021/05/16 06:14:22;;;;;;;3.05;1.70;;;;;;;12.60;82.83;99558.25;3564547;40;20045;-52
2021/05/16 06:16:49;;;;;;;1.52;1.42;;;;;;;12.41;82.83;99557.41;3568613;40;20057;-55
2021/05/16 06:19:16;;;;;;;2.72;1.52;;;;;;;12.29;83.40;99564.25;3559159;40;20096;-54
2021/05/16 06:21:43;;;;;;;1.70;1.50;;;;;;;12.36;83.72;99561.69;3567383;40;20053;-53
2021/05/16 06:24:12;;;;;;;2.65;1.60;;;;;;;12.43;83.67;99563.41;3567762;40;20085;-56
2021/05/16 06:26:42;;;;;;;1.58;1.48;;;;;;;12.45;83.27;99565.97;3568712;40;20068;-58
2021/05/16 06:29:11;;;;;;;1.80;1.65;;;;;;;12.52;83.49;99569.38;3568438;40;20061;-48
2021/05/16 06:31:39;;;;;;;2.42;1.50;;;;;;;12.37;84.95;99568.53;3567258;40;20045;-53
2021/05/16 06:34:07;;;;;;;1.73;1.40;;;;;;;12.54;84.18;99576.25;3567217;40;20323;-52
2021/05/16 06:36:34;;;;;;;1.50;1.35;;;;;;;12.77;82.65;99581.38;3568950;40;20057;-55
2021/05/16 06:39:03;;;;;;;2.13;1.35;;;;;;;12.61;83.06;99572.81;3568920;40;20057;-51
2021/05/16 06:41:31;;;;;;;1.60;1.40;;;;;;;12.72;82.41;99576.22;3561608;40;20349;-53
2021/05/16 06:43:59;;;;;;;1.70;1.60;;;;;;;12.62;83.89;99579.66;3562950;40;20523;-51
2021/05/16 06:46:27;;;;;;;1.92;1.60;;;;;;;12.48;87.09;99577.09;3563026;40;20088;-54
2021/05/16 06:48:55;;;;;;;1.92;1.40;;;;;;;12.75;85.74;99586.50;3554867;40;20053;-46
2021/05/16 06:51:22;;;;;;;1.50;1.40;;;;;;;12.75;85.38;99586.50;3560998;40;20542;-55
2021/05/16 06:53:56;;;;;;;2.28;1.60;;;;;;;12.74;86.50;99581.34;3563084;40;20085;-56
2021/05/16 06:56:24;;;;;;;1.33;1.23;;;;;;;12.95;85.56;99573.63;3557259;40;20050;-58
2021/05/16 06:58:51;;;;;;;1.67;1.30;;;;;;;13.25;82.75;99577.00;3560964;40;20037;-50
2021/05/16 07:01:18;;;;;;;3.20;1.30;;;;;;;13.69;80.80;99576.84;3554209;40;20112;-54
2021/05/16 07:03:45;;;;;;;2.45;1.10;;;;;;;13.96;78.01;99574.97;3559734;40;20884;-53
2021/05/16 07:06:12;;;;;;;1.85;1.17;;;;;;;14.48;77.75;99575.50;3559147;40;20096;-48
2021/05/16 07:08:39;;;;;;;1.10;1.00;;;;;;;13.89;77.86;99576.72;3566818;40;20049;-56
2021/05/16 07:11:07;;;;;;;0.77;0.50;;;;;;;14.68;74.30;99580.47;3566997;40;20061;-48
2021/05/16 07:13:34;;;;;;;2.17;0.77;;;;;;;14.44;75.22;99568.63;3568487;40;20072;-48
2021/05/16 07:16:01;;;;;;;1.05;0.70;;;;;;;14.84;73.49;99576.03;3558722;40;20064;-58
2021/05/16 07:18:30;;;;;;;1.17;0.77;;;;;;;14.56;76.87;99577.13;3566715;40;20336;-54
2021/05/16 07:20:57;;;;;;;1.00;0.80;;;;;;;14.22;77.81;99579.94;3566999;40;20346;-54
2021/05/16 07:23:25;;;;;;;1.63;0.95;;;;;;;14.03;79.87;99579.22;3565523;40;20065;-53
2021/05/16 07:25:52;;;;;;;1.20;0.90;;;;;;;14.22;79.10;99574.78;3568743;40;20120;-52
2021/05/16 07:28:19;;;;;;;2.25;1.10;;;;;;;14.13;77.97;99580.84;3567654;40;20076;-53
2021/05/16 07:30:47;;;;;;;1.17;0.90;;;;;;;14.50;77.72;99578.88;3571227;40;20094;-49
2021/05/16 07:33:14;;;;;;;1.10;0.90;;;;;;;14.42;77.09;99580.66;3572216;40;20048;-49
2021/05/16 07:35:42;;;;;;;6.18;1.02;;;;;;;14.47;76.64;99576.31;3568948;40;20053;-50
2021/05/16 07:38:10;;;;;;;0.82;0.80;;;;;;;14.92;75.79;99570.78;3567118;40;20152;-52
2021/05/16 07:40:37;;;;;;;1.02;0.85;;;;;;;14.90;74.82;99585.44;3568545;40;20104;-50
2021/05/16 07:43:05;;;;;;;1.30;0.77;;;;;;;14.94;73.21;99585.38;3568372;40;20107;-50
2021/05/16 07:45:32;;;;;;;1.75;1.05;;;;;;;14.72;73.34;99582.16;3565510;40;20066;-50
2021/05/16 07:48:00;;;;;;;0.82;0.82;;;;;;;14.70;73.26;99583.91;3566047;40;20053;-52
2021/05/16 07:50:27;;;;;;;1.00;0.55;;;;;;;15.05;73.06;99587.84;3565853;40;20076;-52
2021/05/16 07:52:54;;;;;;;0.68;0.60;;;;;;;15.34;71.89;99591.81;3572225;40;20089;-48
2021/05/16 07:55:21;;;;;;;0.70;0.60;;;;;;;15.01;71.95;99591.31;3566050;40;20068;-51
2021/05/16 07:57:48;;;;;;;2.42;0.90;;;;;;;14.99;72.06;99577.59;3567932;40;20058;-52
2021/05/16 08:00:16;;;;;;;1.90;0.60;;;;;;;14.65;71.58;99584.78;3568668;40;20179;-57
2021/05/16 08:02:43;;;;;;;0.70;0.50;;;;;;;14.47;72.91;99588.34;3571512;40;20089;-50
2021/05/16 08:05:12;;;;;;;0.47;0.40;;;;;;;14.84;71.17;99590.66;3568157;40;20050;-54
2021/05/16 08:07:47;;;;;;;1.08;0.50;;;;;;;14.77;71.14;99588.09;3560545;40;20048;-52
2021/05/16 08:10:15;;;;;;;0.63;0.60;;;;;;;15.34;69.46;99592.69;3569756;40;20722;-51
2021/05/16 08:12:42;;;;;;;1.90;0.40;;;;;;;15.62;68.18;99589.75;3559488;40;20045;-48
2021/05/16 08:15:09;;;;;;;0.60;0.60;;;;;;;15.20;69.31;99587.66;3572976;40;20067;-55
2021/05/16 08:17:36;;;;;;;0.50;0.50;;;;;;;15.31;69.13;99590.16;3575082;40;20056;-48
2021/05/16 08:20:06;;;;;;;1.00;0.75;;;;;;;15.20;69.83;99589.41;3570151;40;20046;-50
2021/05/16 08:22:33;;;;;;;0.40;0.40;;;;;;;15.29;69.79;99589.28;3566931;40;20451;-51
2021/05/16 08:25:06;;;;;;;0.63;0.50;;;;;;;15.92;67.69;99589.41;3562827;40;20124;-52
2021/05/16 08:27:34;;;;;;;3.13;1.30;;;;;;;15.64;67.70;99586.34;3562151;40;20777;-53
2021/05/16 08:30:01;;;;;;;0.57;0.57;;;;;;;15.82;67.75;99592.16;3567771;40;20057;-48
2021/05/16 08:32:29;;;;;;;0.85;0.73;;;;;;;15.59;66.03;99593.25;3566249;40;20045;-53
2021/05/16 08:34:57;;;;;;;1.38;0.50;;;;;;;15.61;66.80;99586.34;3567835;40;20042;-55
2021/05/16 08:37:24;;;;;;;0.80;0.60;;;;;;;15.70;67.94;99582.81;3569512;40;20057;-49
2021/05/16 08:39:52;;;;;;;1.63;0.60;;;;;;;15.73;66.31;99583.63;3558548;40;20085;-47
2021/05/16 08:42:19;;;;;;;1.17;0.70;;;;;;;15.51;68.22;99584.75;3568672;40;20049;-51
2021/05/16 08:44:46;;;;;;;0.73;0.73;;;;;;;15.53;67.53;99590.75;3555279;40;20712;-54
2021/05/16 08:47:14;;;;;;;2.65;0.70;;;;;;;15.54;66.97;99595.03;3565577;40;20104;-53
2021/05/16 08:49:42;;;;;;;2.65;1.10;;;;;;;14.85;69.45;99594.94;3567757;40;20085;-51
2021/05/16 08:52:09;;;;;;;1.98;0.70;;;;;;;15.52;68.13;99581.28;3558742;40;20064;-50
2021/05/16 08:54:36;;;;;;;0.77;0.60;;;;;;;16.02;65.26;99588.41;3569185;40;20057;-56
2021/05/16 08:57:03;;;;;;;2.05;0.73;;;;;;;15.98;65.39;99588.47;3568793;40;20297;-54
2021/05/16 08:59:31;;;;;;;1.17;0.95;;;;;;;15.66;65.80;99592.31;3568907;40;20593;-55
2021/05/16 09:01:59;;;;;;;1.60;0.70;;;;;;;16.20;65.66;99595.03;3560274;40;20057;-48
2021/05/16 09:04:36;;;;;;;1.23;0.50;;;;;;;16.37;65.08;99599.94;3567742;40;20185;-55
2021/05/16 09:07:04;;;;;;;1.88;0.85;;;;;;;16.12;66.31;99596.00;3556513;40;20334;-55
2021/05/16 09:09:41;;;;;;;0.63;0.60;;;;;;;16.91;63.12;99599.06;3559984;40;20093;-49
2021/05/16 09:12:15;;;;;;;2.47;1.00;;;;;;;16.45;63.82;99600.66;3567639;40;20061;-53
2021/05/16 09:14:47;;;;;;;1.30;0.80;;;;;;;16.52;62.66;99597.09;3559967;40;20043;-54
2021/05/16 09:17:34;;;;;;;1.00;0.80;;;;;;;17.23;60.67;99594.16;3559153;40;20116;-52
2021/05/16 09:20:09;;;;;;;1.25;0.68;;;;;;;17.24;60.82;99598.47;3567500;40;20077;-52
2021/05/16 09:22:45;;;;;;;0.95;0.80;;;;;;;16.77;62.65;99605.31;3569134;40;20343;-53
2021/05/16 09:25:16;;;;;;;2.65;0.70;;;;;;;17.41;61.23;99582.59;3571906;40;20045;-48
2021/05/16 09:27:46;;;;;;;2.67;0.60;;;;;;;18.27;57.97;99596.31;3569273;40;20060;-53
2021/05/16 09:30:19;;;;;;;2.67;0.80;;;;;;;18.94;55.65;99589.47;3573365;40;20059;-53
2021/05/16 09:33:07;;;;;;;3.30;1.10;;;;;;;18.38;57.05;99589.13;3569826;40;20215;-53
2021/05/16 09:35:38;;;;;;;1.02;0.90;;;;;;;18.34;56.16;99595.28;3568330;40;20060;-53
2021/05/16 09:38:19;;;;;;;3.03;1.40;;;;;;;18.36;55.76;99590.06;3564846;40;20097;-53
2021/05/16 09:40:54;;;;;;;1.33;0.70;;;;;;;19.38;55.19;99587.44;3567254;40;20340;-51
2021/05/16 09:43:29;;;;;;;1.50;0.73;;;;;;;19.42;55.56;99589.06;3568397;40;20089;-52
2021/05/16 09:46:05;;;;;;;1.53;0.70;;;;;;;20.07;51.73;99585.44;3565824;40;20060;-52
2021/05/16 09:48:37;;;;;;;2.50;1.05;;;;;;;19.76;52.50;99595.91;3563056;40;20089;-55
2021/05/16 09:51:18;;;;;;;2.08;0.80;;;;;;;19.83;52.63;99589.63;3566961;40;20101;-50
2021/05/16 09:53:59;;;;;;;3.05;0.70;;;;;;;20.30;50.87;99592.50;3567684;40;20053;-50
2021/05/16 09:56:37;;;;;;;3.22;0.90;;;;;;;19.86;49.52;99588.69;3568690;40;20057;-50
2021/05/16 09:59:06;;;;;;;2.10;1.02;;;;;;;19.83;49.17;99594.84;3568973;40;20090;-50
2021/05/16 10:01:36;;;;;;;1.75;0.80;;;;;;;19.43;49.78;99582.97;3567814;40;20545;-52
2021/05/16 10:04:05;;;;;;;1.75;0.90;;;;;;;21.04;46.04;99583.97;3564839;40;20140;-51
2021/05/16 10:06:34;;;;;;;2.33;0.70;;;;;;;23.79;41.26;99594.66;3569292;40;20064;-49
2021/05/16 10:09:02;;;;;;;3.08;1.00;;;;;;;25.97;35.63;99592.38;3569265;40;20134;-55
2021/05/16 10:11:30;;;;;;;2.42;0.65;;;;;;;26.32;33.98;99591.25;3567292;40;20916;-48
2021/05/16 10:14:05;;;;;;;2.53;0.77;;;;;;;25.28;38.05;99585.59;3567378;40;20094;-49
2021/05/16 10:16:40;;;;;;;1.98;0.70;;;;;;;26.70;32.10;99582.97;3565600;40;20473;-52
2021/05/16 10:19:13;;;;;;;3.38;0.73;;;;;;;23.28;37.80;99589.09;3568815;40;20111;-53
2021/05/16 10:21:40;;;;;;;2.63;0.95;;;;;;;24.01;35.97;99590.13;3569731;40;20074;-55
2021/05/16 10:24:08;;;;;;;3.95;0.73;;;;;;;24.45;35.05;99584.56;3568618;40;20077;-52
2021/05/16 10:26:37;;;;;;;2.10;1.23;;;;;;;24.71;33.87;99587.66;3570234;40;20052;-51
2021/05/16 10:29:15;;;;;;;1.35;0.77;;;;;;;25.20;33.81;99575.53;3568942;40;20057;-52
2021/05/16 10:31:48;;;;;;;1.80;1.08;;;;;;;25.28;33.11;99580.34;3569552;40;20082;-53
2021/05/16 10:34:25;;;;;;;2.22;0.80;;;;;;;25.86;32.06;99578.09;3568965;40;20049;-53
2021/05/16 10:37:00;;;;;;;5.07;0.85;;;;;;;24.24;35.97;99581.19;3570106;40;20053;-49
2021/05/16 10:39:40;;;;;;;3.03;0.80;;;;;;;23.19;38.06;99570.34;3569883;40;20049;-54
2021/05/16 10:42:15;;;;;;;1.90;0.82;;;;;;;23.85;36.34;99576.09;3571925;40;20423;-51
2021/05/16 10:45:04;;;;;;;3.50;0.80;;;;;;;25.22;34.11;99573.66;3576019;40;20093;-55
2021/05/16 10:47:47;;;;;;;3.25;1.02;;;;;;;27.12;30.41;99576.97;3570962;40;20052;-56
2021/05/16 10:50:24;;;;;;;2.85;0.95;;;;;;;27.72;29.87;99569.81;3569235;40;20072;-49
2021/05/16 10:53:05;;;;;;;5.93;1.60;;;;;;;29.72;26.17;99576.59;3569195;40;20117;-51
2021/05/16 10:55:35;;;;;;;3.63;1.23;;;;;;;25.79;31.23;99555.78;3566476;40;20061;-54
2021/05/16 10:58:03;;;;;;;2.70;0.80;;;;;;;24.03;35.52;99556.06;3568021;40;20049;-51
2021/05/16 11:00:42;;;;;;;2.58;1.38;;;;;;;25.27;34.16;99553.31;3569062;40;20095;-50
2021/05/16 11:03:12;;;;;;;5.22;1.42;;;;;;;25.54;31.64;99552.75;3582551;40;20064;-50
2021/05/16 11:08:32;;;;;;;3.03;1.70;;;;;;;26.78;29.61;99546.59;3569178;40;20350;-52
2021/05/16 11:11:01;;;;;;;6.22;1.75;;;;;;;26.17;30.58;99552.78;3559087;40;20071;-52
2021/05/16 11:13:31;;;;;;;10.23;4.35;;;;;;;25.89;32.22;99543.84;3570545;40;20051;-52
2021/05/16 11:16:09;;;;;;;6.53;2.25;;;;;;;25.16;32.91;99534.69;3568115;40;20140;-53
2021/05/16 11:18:36;;;;;;;2.17;0.90;;;;;;;26.66;29.72;99547.31;3565886;40;20313;-50
2021/05/16 11:21:08;;;;;;;6.10;1.90;;;;;;;25.26;31.68;99538.53;3566262;40;20046;-51
2021/05/16 11:23:38;;;;;;;8.02;2.78;;;;;;;23.93;34.45;99532.09;3566672;40;20061;-56
2021/05/16 11:26:10;;;;;;;5.28;2.88;;;;;;;23.69;34.74;99531.50;3566518;40;20101;-54
2021/05/16 11:28:44;;;;;;;3.25;0.90;;;;;;;24.86;32.96;99535.34;3568542;40;20426;-53
2021/05/16 11:31:13;;;;;;;5.63;2.97;;;;;;;27.37;28.93;99531.63;3568451;40;20553;-49
2021/05/16 11:33:42;;;;;;;4.88;1.13;;;;;;;26.29;30.24;99527.59;3568458;40;20057;-47
2021/05/16 11:36:17;;;;;;;2.25;0.98;;;;;;;27.41;28.14;99527.88;3569931;40;20399;-51
2021/05/16 11:38:47;;;;;;;4.07;1.00;;;;;;;25.94;31.33;99527.84;3568782;40;20054;-56
2021/05/16 11:41:41;;;;;;;2.50;1.13;;;;;;;25.26;31.30;99522.78;3568729;40;20068;-53
2021/05/16 11:44:10;;;;;;;1.80;0.88;;;;;;;23.94;32.94;99519.88;3568770;40;20060;-50
2021/05/16 11:46:46;;;;;;;2.88;0.80;;;;;;;25.88;29.75;99521.16;3567936;40;20480;-49